sensor_id;sensor_type;location;lat;lon;timestamp;P1;durP1;ratioP1;P2;durP2;ratioP2
49890;SDS011;35780;55.568;37.492;2022-12-29T00:01:50;4.90;;;2.05;;
49890;SDS011;35780;55.568;37.492;2022-12-29T00:04:17;8.18;;;2.97;;
49890;SDS011;35780;55.568;37.492;2022-12-29T00:06:43;6.53;;;2.13;;
49890;SDS011;35780;55.568;37.492;2022-12-29T00:09:10;10.90;;;2.08;;
49890;SDS011;35780;55.568;37.492;2022-12-29T00:11:37;4.82;;;2.35;;
49890;SDS011;35780;55.568;37.492;2022-12-29T00:14:03;9.32;;;2.25;;
49890;SDS011;35780;55.568;37.492;2022-12-29T00:16:47;7.80;;;2.30;;
49890;SDS011;35780;55.568;37.492;2022-12-29T00:19:13;7.50;;;3.03;;
49890;SDS011;35780;55.568;37.492;2022-12-29T00:21:57;5.93;;;1.95;;
49890;SDS011;35780;55.568;37.492;2022-12-29T00:24:42;4.50;;;2.10;;
49890;SDS011;35780;55.568;37.492;2022-12-29T00:27:20;7.35;;;1.95;;
49890;SDS011;35780;55.568;37.492;2022-12-29T00:30:10;11.57;;;2.75;;
49890;SDS011;35780;55.568;37.492;2022-12-29T00:32:58;7.32;;;2.30;;
49890;SDS011;35780;55.568;37.492;2022-12-29T00:35:46;12.82;;;2.85;;
49890;SDS011;35780;55.568;37.492;2022-12-29T00:38:17;10.18;;;2.20;;
49890;SDS011;35780;55.568;37.492;2022-12-29T00:41:02;8.90;;;2.65;;
49890;SDS011;35780;55.568;37.492;2022-12-29T00:43:46;11.60;;;2.58;;
49890;SDS011;35780;55.568;37.492;2022-12-29T00:46:30;3.55;;;2.00;;
49890;SDS011;35780;55.568;37.492;2022-12-29T00:48:56;9.35;;;2.40;;
49890;SDS011;35780;55.568;37.492;2022-12-29T00:51:41;8.07;;;2.58;;
49890;SDS011;35780;55.568;37.492;2022-12-29T00:54:07;7.07;;;2.75;;
49890;SDS011;35780;55.568;37.492;2022-12-29T00:56:33;6.50;;;2.47;;
49890;SDS011;35780;55.568;37.492;2022-12-29T00:59:02;7.40;;;1.88;;
49890;SDS011;35780;55.568;37.492;2022-12-29T01:01:29;7.47;;;2.70;;
49890;SDS011;35780;55.568;37.492;2022-12-29T01:03:55;8.25;;;2.70;;
49890;SDS011;35780;55.568;37.492;2022-12-29T01:06:20;11.77;;;3.03;;
49890;SDS011;35780;55.568;37.492;2022-12-29T01:08:46;11.40;;;3.05;;
49890;SDS011;35780;55.568;37.492;2022-12-29T01:11:12;7.85;;;2.60;;
49890;SDS011;35780;55.568;37.492;2022-12-29T01:13:38;10.38;;;2.63;;
49890;SDS011;35780;55.568;37.492;2022-12-29T01:16:06;9.27;;;2.88;;
49890;SDS011;35780;55.568;37.492;2022-12-29T01:18:31;6.78;;;2.60;;
49890;SDS011;35780;55.568;37.492;2022-12-29T01:20:58;9.32;;;2.92;;
49890;SDS011;35780;55.568;37.492;2022-12-29T01:23:25;5.90;;;2.38;;
49890;SDS011;35780;55.568;37.492;2022-12-29T01:25:50;4.63;;;2.13;;
49890;SDS011;35780;55.568;37.492;2022-12-29T01:28:16;6.65;;;2.40;;
49890;SDS011;35780;55.568;37.492;2022-12-29T01:30:41;12.50;;;2.70;;
49890;SDS011;35780;55.568;37.492;2022-12-29T01:33:07;6.07;;;2.50;;
49890;SDS011;35780;55.568;37.492;2022-12-29T01:35:32;10.15;;;2.75;;
49890;SDS011;35780;55.568;37.492;2022-12-29T01:37:58;9.68;;;2.78;;
49890;SDS011;35780;55.568;37.492;2022-12-29T01:40:24;6.63;;;2.10;;
49890;SDS011;35780;55.568;37.492;2022-12-29T01:42:50;5.93;;;2.13;;
49890;SDS011;35780;55.568;37.492;2022-12-29T01:45:16;8.68;;;2.20;;
49890;SDS011;35780;55.568;37.492;2022-12-29T01:47:43;5.93;;;2.05;;
49890;SDS011;35780;55.568;37.492;2022-12-29T01:50:12;8.15;;;2.92;;
49890;SDS011;35780;55.568;37.492;2022-12-29T01:52:44;6.20;;;2.30;;
49890;SDS011;35780;55.568;37.492;2022-12-29T01:55:17;10.32;;;2.40;;
49890;SDS011;35780;55.568;37.492;2022-12-29T01:57:44;9.73;;;1.85;;
49890;SDS011;35780;55.568;37.492;2022-12-29T02:00:13;14.05;;;2.15;;
49890;SDS011;35780;55.568;37.492;2022-12-29T02:02:39;9.93;;;2.35;;
49890;SDS011;35780;55.568;37.492;2022-12-29T02:05:11;4.90;;;1.98;;
49890;SDS011;35780;55.568;37.492;2022-12-29T02:07:41;6.70;;;2.00;;
49890;SDS011;35780;55.568;37.492;2022-12-29T02:10:07;12.65;;;2.58;;
49890;SDS011;35780;55.568;37.492;2022-12-29T02:12:33;11.70;;;3.00;;
49890;SDS011;35780;55.568;37.492;2022-12-29T02:14:59;7.40;;;2.30;;
49890;SDS011;35780;55.568;37.492;2022-12-29T02:17:30;15.38;;;5.57;;
49890;SDS011;35780;55.568;37.492;2022-12-29T02:34:04;8.02;;;2.45;;
49890;SDS011;35780;55.568;37.492;2022-12-29T02:39:52;13.73;;;3.95;;
49890;SDS011;35780;55.568;37.492;2022-12-29T02:45:06;11.13;;;2.53;;
49890;SDS011;35780;55.568;37.492;2022-12-29T02:47:43;10.55;;;2.65;;
49890;SDS011;35780;55.568;37.492;2022-12-29T02:50:23;9.00;;;2.13;;
49890;SDS011;35780;55.568;37.492;2022-12-29T02:55:25;6.10;;;2.53;;
49890;SDS011;35780;55.568;37.492;2022-12-29T02:58:13;13.68;;;2.90;;
49890;SDS011;35780;55.568;37.492;2022-12-29T03:03:39;8.55;;;2.53;;
49890;SDS011;35780;55.568;37.492;2022-12-29T03:08:55;6.45;;;2.63;;
49890;SDS011;35780;55.568;37.492;2022-12-29T03:11:25;4.40;;;1.38;;
49890;SDS011;35780;55.568;37.492;2022-12-29T03:14:17;16.27;;;3.10;;
49890;SDS011;35780;55.568;37.492;2022-12-29T03:17:57;12.45;;;3.05;;
49890;SDS011;35780;55.568;37.492;2022-12-29T03:20:09;12.15;;;2.00;;
49890;SDS011;35780;55.568;37.492;2022-12-29T03:22:38;10.45;;;2.45;;
49890;SDS011;35780;55.568;37.492;2022-12-29T03:27:59;12.85;;;3.53;;
49890;SDS011;35780;55.568;37.492;2022-12-29T03:30:28;11.45;;;2.80;;
49890;SDS011;35780;55.568;37.492;2022-12-29T03:32:55;9.05;;;3.15;;
49890;SDS011;35780;55.568;37.492;2022-12-29T03:35:25;16.10;;;3.13;;
49890;SDS011;35780;55.568;37.492;2022-12-29T03:37:53;8.30;;;2.42;;
49890;SDS011;35780;55.568;37.492;2022-12-29T03:40:22;9.02;;;3.25;;
49890;SDS011;35780;55.568;37.492;2022-12-29T03:42:48;8.30;;;2.95;;
49890;SDS011;35780;55.568;37.492;2022-12-29T03:45:14;15.30;;;3.38;;
49890;SDS011;35780;55.568;37.492;2022-12-29T03:47:40;8.52;;;3.20;;
49890;SDS011;35780;55.568;37.492;2022-12-29T03:50:05;24.13;;;4.72;;
49890;SDS011;35780;55.568;37.492;2022-12-29T03:52:33;14.90;;;4.60;;
49890;SDS011;35780;55.568;37.492;2022-12-29T03:54:59;17.00;;;4.97;;
49890;SDS011;35780;55.568;37.492;2022-12-29T03:57:25;14.00;;;3.65;;
49890;SDS011;35780;55.568;37.492;2022-12-29T03:59:50;12.27;;;5.18;;
49890;SDS011;35780;55.568;37.492;2022-12-29T04:02:16;15.57;;;5.25;;
49890;SDS011;35780;55.568;37.492;2022-12-29T04:04:41;13.93;;;5.68;;
49890;SDS011;35780;55.568;37.492;2022-12-29T04:07:07;12.27;;;5.65;;
49890;SDS011;35780;55.568;37.492;2022-12-29T04:09:32;16.35;;;5.22;;
49890;SDS011;35780;55.568;37.492;2022-12-29T04:11:58;15.77;;;5.80;;
49890;SDS011;35780;55.568;37.492;2022-12-29T04:14:24;16.35;;;5.63;;
49890;SDS011;35780;55.568;37.492;2022-12-29T04:16:49;12.10;;;5.53;;
49890;SDS011;35780;55.568;37.492;2022-12-29T04:19:15;9.77;;;5.05;;
49890;SDS011;35780;55.568;37.492;2022-12-29T04:21:40;18.67;;;5.85;;
49890;SDS011;35780;55.568;37.492;2022-12-29T04:24:08;13.85;;;5.28;;
49890;SDS011;35780;55.568;37.492;2022-12-29T04:26:34;19.27;;;5.28;;
49890;SDS011;35780;55.568;37.492;2022-12-29T04:28:59;10.98;;;5.32;;
49890;SDS011;35780;55.568;37.492;2022-12-29T04:31:25;14.75;;;5.47;;
49890;SDS011;35780;55.568;37.492;2022-12-29T04:33:50;17.83;;;6.28;;
49890;SDS011;35780;55.568;37.492;2022-12-29T04:36:16;13.95;;;5.70;;
49890;SDS011;35780;55.568;37.492;2022-12-29T04:38:41;12.82;;;5.40;;
49890;SDS011;35780;55.568;37.492;2022-12-29T04:41:07;13.35;;;5.40;;
49890;SDS011;35780;55.568;37.492;2022-12-29T04:43:33;18.50;;;5.57;;
49890;SDS011;35780;55.568;37.492;2022-12-29T04:45:58;17.25;;;5.57;;
49890;SDS011;35780;55.568;37.492;2022-12-29T04:48:24;13.52;;;5.93;;
49890;SDS011;35780;55.568;37.492;2022-12-29T04:50:49;21.77;;;5.65;;
49890;SDS011;35780;55.568;37.492;2022-12-29T04:53:15;15.20;;;5.10;;
49890;SDS011;35780;55.568;37.492;2022-12-29T04:55:41;12.63;;;5.20;;
49890;SDS011;35780;55.568;37.492;2022-12-29T04:58:07;12.70;;;4.38;;
49890;SDS011;35780;55.568;37.492;2022-12-29T05:00:33;20.48;;;6.63;;
49890;SDS011;35780;55.568;37.492;2022-12-29T05:02:58;20.27;;;5.90;;
49890;SDS011;35780;55.568;37.492;2022-12-29T05:05:24;15.27;;;5.93;;
49890;SDS011;35780;55.568;37.492;2022-12-29T05:07:50;11.35;;;4.80;;
49890;SDS011;35780;55.568;37.492;2022-12-29T05:10:15;13.23;;;5.97;;
49890;SDS011;35780;55.568;37.492;2022-12-29T05:12:42;12.00;;;5.90;;
49890;SDS011;35780;55.568;37.492;2022-12-29T05:15:07;16.02;;;5.70;;
49890;SDS011;35780;55.568;37.492;2022-12-29T05:17:34;20.92;;;7.38;;
49890;SDS011;35780;55.568;37.492;2022-12-29T05:19:59;17.73;;;5.53;;
49890;SDS011;35780;55.568;37.492;2022-12-29T05:22:25;12.13;;;6.30;;
49890;SDS011;35780;55.568;37.492;2022-12-29T05:24:51;13.50;;;5.20;;
49890;SDS011;35780;55.568;37.492;2022-12-29T05:27:16;15.05;;;4.70;;
49890;SDS011;35780;55.568;37.492;2022-12-29T05:29:42;14.70;;;6.03;;
49890;SDS011;35780;55.568;37.492;2022-12-29T05:32:07;19.92;;;5.50;;
49890;SDS011;35780;55.568;37.492;2022-12-29T05:34:33;10.73;;;4.80;;
49890;SDS011;35780;55.568;37.492;2022-12-29T05:36:58;16.45;;;5.50;;
49890;SDS011;35780;55.568;37.492;2022-12-29T05:39:24;11.95;;;4.55;;
49890;SDS011;35780;55.568;37.492;2022-12-29T05:41:49;7.95;;;3.70;;
49890;SDS011;35780;55.568;37.492;2022-12-29T05:44:15;10.35;;;4.35;;
49890;SDS011;35780;55.568;37.492;2022-12-29T05:46:40;14.90;;;5.22;;
49890;SDS011;35780;55.568;37.492;2022-12-29T05:49:06;16.70;;;4.30;;
49890;SDS011;35780;55.568;37.492;2022-12-29T05:51:32;11.02;;;4.68;;
49890;SDS011;35780;55.568;37.492;2022-12-29T05:53:57;12.35;;;4.43;;
49890;SDS011;35780;55.568;37.492;2022-12-29T05:56:23;7.28;;;3.78;;
49890;SDS011;35780;55.568;37.492;2022-12-29T05:58:48;12.70;;;4.72;;
49890;SDS011;35780;55.568;37.492;2022-12-29T06:01:14;11.77;;;4.20;;
49890;SDS011;35780;55.568;37.492;2022-12-29T06:03:40;9.82;;;3.63;;
49890;SDS011;35780;55.568;37.492;2022-12-29T06:06:05;14.90;;;4.07;;
49890;SDS011;35780;55.568;37.492;2022-12-29T06:08:32;12.32;;;5.00;;
49890;SDS011;35780;55.568;37.492;2022-12-29T06:10:57;8.15;;;4.15;;
49890;SDS011;35780;55.568;37.492;2022-12-29T06:13:23;13.32;;;5.40;;
49890;SDS011;35780;55.568;37.492;2022-12-29T06:15:49;13.07;;;4.20;;
49890;SDS011;35780;55.568;37.492;2022-12-29T06:18:15;12.77;;;5.13;;
49890;SDS011;35780;55.568;37.492;2022-12-29T06:20:40;12.73;;;5.53;;
49890;SDS011;35780;55.568;37.492;2022-12-29T06:23:06;12.57;;;4.95;;
49890;SDS011;35780;55.568;37.492;2022-12-29T06:25:31;18.55;;;6.32;;
49890;SDS011;35780;55.568;37.492;2022-12-29T06:27:58;12.27;;;5.63;;
49890;SDS011;35780;55.568;37.492;2022-12-29T06:30:24;14.80;;;5.80;;
49890;SDS011;35780;55.568;37.492;2022-12-29T06:32:49;17.10;;;5.75;;
49890;SDS011;35780;55.568;37.492;2022-12-29T06:35:16;15.88;;;6.10;;
49890;SDS011;35780;55.568;37.492;2022-12-29T06:37:42;14.27;;;6.35;;
49890;SDS011;35780;55.568;37.492;2022-12-29T06:40:08;16.33;;;6.32;;
49890;SDS011;35780;55.568;37.492;2022-12-29T06:42:34;6.88;;;4.22;;
49890;SDS011;35780;55.568;37.492;2022-12-29T06:45:00;29.83;;;8.77;;
49890;SDS011;35780;55.568;37.492;2022-12-29T06:47:26;10.70;;;6.88;;
49890;SDS011;35780;55.568;37.492;2022-12-29T06:49:51;12.18;;;6.97;;
49890;SDS011;35780;55.568;37.492;2022-12-29T06:52:17;14.90;;;7.75;;
49890;SDS011;35780;55.568;37.492;2022-12-29T06:54:43;13.77;;;7.15;;
49890;SDS011;35780;55.568;37.492;2022-12-29T06:57:08;10.00;;;5.30;;
49890;SDS011;35780;55.568;37.492;2022-12-29T06:59:34;16.73;;;7.45;;
49890;SDS011;35780;55.568;37.492;2022-12-29T07:01:59;13.25;;;7.00;;
49890;SDS011;35780;55.568;37.492;2022-12-29T07:04:27;14.95;;;6.63;;
49890;SDS011;35780;55.568;37.492;2022-12-29T07:06:53;17.67;;;5.15;;
49890;SDS011;35780;55.568;37.492;2022-12-29T07:09:19;17.75;;;6.18;;
49890;SDS011;35780;55.568;37.492;2022-12-29T07:11:44;16.58;;;7.70;;
49890;SDS011;35780;55.568;37.492;2022-12-29T07:14:10;13.48;;;7.20;;
49890;SDS011;35780;55.568;37.492;2022-12-29T07:16:36;12.43;;;7.07;;
49890;SDS011;35780;55.568;37.492;2022-12-29T07:19:02;15.18;;;6.10;;
49890;SDS011;35780;55.568;37.492;2022-12-29T07:21:28;14.13;;;7.05;;
49890;SDS011;35780;55.568;37.492;2022-12-29T07:23:53;7.68;;;3.83;;
49890;SDS011;35780;55.568;37.492;2022-12-29T07:26:19;14.32;;;4.85;;
49890;SDS011;35780;55.568;37.492;2022-12-29T07:28:45;21.58;;;7.55;;
49890;SDS011;35780;55.568;37.492;2022-12-29T07:31:14;11.95;;;6.07;;
49890;SDS011;35780;55.568;37.492;2022-12-29T07:33:44;8.85;;;4.28;;
49890;SDS011;35780;55.568;37.492;2022-12-29T07:36:10;10.60;;;4.72;;
49890;SDS011;35780;55.568;37.492;2022-12-29T07:38:36;9.02;;;4.60;;
49890;SDS011;35780;55.568;37.492;2022-12-29T07:41:02;13.63;;;4.65;;
49890;SDS011;35780;55.568;37.492;2022-12-29T07:43:27;11.40;;;2.92;;
49890;SDS011;35780;55.568;37.492;2022-12-29T07:45:53;8.85;;;3.65;;
49890;SDS011;35780;55.568;37.492;2022-12-29T07:48:19;8.80;;;3.85;;
49890;SDS011;35780;55.568;37.492;2022-12-29T07:50:44;12.45;;;4.65;;
49890;SDS011;35780;55.568;37.492;2022-12-29T07:53:10;13.00;;;4.18;;
49890;SDS011;35780;55.568;37.492;2022-12-29T07:55:35;12.07;;;4.22;;
49890;SDS011;35780;55.568;37.492;2022-12-29T07:58:01;10.60;;;4.15;;
49890;SDS011;35780;55.568;37.492;2022-12-29T08:00:27;8.82;;;4.25;;
49890;SDS011;35780;55.568;37.492;2022-12-29T08:02:52;17.35;;;4.22;;
49890;SDS011;35780;55.568;37.492;2022-12-29T08:05:18;12.77;;;4.60;;
49890;SDS011;35780;55.568;37.492;2022-12-29T08:07:44;12.50;;;5.28;;
49890;SDS011;35780;55.568;37.492;2022-12-29T08:10:10;11.82;;;5.68;;
49890;SDS011;35780;55.568;37.492;2022-12-29T08:12:37;15.77;;;6.63;;
49890;SDS011;35780;55.568;37.492;2022-12-29T08:15:03;11.90;;;5.03;;
49890;SDS011;35780;55.568;37.492;2022-12-29T08:17:29;15.30;;;4.68;;
49890;SDS011;35780;55.568;37.492;2022-12-29T08:19:55;19.15;;;6.05;;
49890;SDS011;35780;55.568;37.492;2022-12-29T08:22:21;18.50;;;5.85;;
49890;SDS011;35780;55.568;37.492;2022-12-29T08:24:46;12.98;;;4.95;;
49890;SDS011;35780;55.568;37.492;2022-12-29T08:27:12;11.30;;;5.22;;
49890;SDS011;35780;55.568;37.492;2022-12-29T08:29:37;14.30;;;4.95;;
49890;SDS011;35780;55.568;37.492;2022-12-29T08:32:03;15.20;;;3.30;;
49890;SDS011;35780;55.568;37.492;2022-12-29T08:34:30;16.35;;;6.38;;
49890;SDS011;35780;55.568;37.492;2022-12-29T08:36:56;14.45;;;4.45;;
49890;SDS011;35780;55.568;37.492;2022-12-29T08:39:21;12.75;;;4.82;;
49890;SDS011;35780;55.568;37.492;2022-12-29T08:41:47;9.93;;;4.10;;
49890;SDS011;35780;55.568;37.492;2022-12-29T08:44:12;11.80;;;5.25;;
49890;SDS011;35780;55.568;37.492;2022-12-29T08:46:38;19.77;;;4.07;;
49890;SDS011;35780;55.568;37.492;2022-12-29T08:49:04;10.85;;;4.68;;
49890;SDS011;35780;55.568;37.492;2022-12-29T08:51:29;13.50;;;4.90;;
49890;SDS011;35780;55.568;37.492;2022-12-29T08:53:55;15.75;;;4.75;;
49890;SDS011;35780;55.568;37.492;2022-12-29T08:56:21;15.07;;;4.75;;
49890;SDS011;35780;55.568;37.492;2022-12-29T08:58:48;8.02;;;3.28;;
49890;SDS011;35780;55.568;37.492;2022-12-29T09:01:14;7.35;;;3.25;;
49890;SDS011;35780;55.568;37.492;2022-12-29T09:03:40;12.27;;;3.45;;
49890;SDS011;35780;55.568;37.492;2022-12-29T09:06:06;9.73;;;3.67;;
49890;SDS011;35780;55.568;37.492;2022-12-29T09:08:31;7.95;;;2.85;;
49890;SDS011;35780;55.568;37.492;2022-12-29T09:11:07;8.98;;;2.97;;
49890;SDS011;35780;55.568;37.492;2022-12-29T09:13:34;8.77;;;2.60;;
49890;SDS011;35780;55.568;37.492;2022-12-29T09:15:59;12.38;;;3.70;;
49890;SDS011;35780;55.568;37.492;2022-12-29T09:18:25;18.10;;;5.28;;
49890;SDS011;35780;55.568;37.492;2022-12-29T09:20:55;7.47;;;3.20;;
49890;SDS011;35780;55.568;37.492;2022-12-29T09:23:22;11.40;;;3.85;;
49890;SDS011;35780;55.568;37.492;2022-12-29T09:25:47;13.63;;;4.75;;
49890;SDS011;35780;55.568;37.492;2022-12-29T09:28:13;13.15;;;4.03;;
49890;SDS011;35780;55.568;37.492;2022-12-29T09:30:38;11.27;;;5.00;;
49890;SDS011;35780;55.568;37.492;2022-12-29T09:33:04;10.88;;;5.03;;
49890;SDS011;35780;55.568;37.492;2022-12-29T09:35:30;11.35;;;4.60;;
49890;SDS011;35780;55.568;37.492;2022-12-29T09:37:55;12.40;;;4.82;;
49890;SDS011;35780;55.568;37.492;2022-12-29T09:46:06;11.45;;;5.45;;
49890;SDS011;35780;55.568;37.492;2022-12-29T09:48:44;9.52;;;4.80;;
49890;SDS011;35780;55.568;37.492;2022-12-29T09:51:15;12.48;;;5.07;;
49890;SDS011;35780;55.568;37.492;2022-12-29T09:53:42;8.27;;;4.10;;
49890;SDS011;35780;55.568;37.492;2022-12-29T09:56:17;8.23;;;3.97;;
49890;SDS011;35780;55.568;37.492;2022-12-29T09:58:49;8.07;;;4.28;;
49890;SDS011;35780;55.568;37.492;2022-12-29T10:04:07;9.60;;;4.05;;
49890;SDS011;35780;55.568;37.492;2022-12-29T10:06:39;9.48;;;4.55;;
49890;SDS011;35780;55.568;37.492;2022-12-29T10:09:15;7.43;;;3.95;;
49890;SDS011;35780;55.568;37.492;2022-12-29T10:24:48;11.07;;;4.70;;
49890;SDS011;35780;55.568;37.492;2022-12-29T10:27:14;7.90;;;3.90;;
49890;SDS011;35780;55.568;37.492;2022-12-29T10:29:49;9.75;;;4.20;;
49890;SDS011;35780;55.568;37.492;2022-12-29T10:32:34;8.10;;;4.07;;
49890;SDS011;35780;55.568;37.492;2022-12-29T10:35:11;9.30;;;3.65;;
49890;SDS011;35780;55.568;37.492;2022-12-29T10:40:36;10.97;;;5.67;;
49890;SDS011;35780;55.568;37.492;2022-12-29T10:43:07;9.98;;;4.78;;
49890;SDS011;35780;55.568;37.492;2022-12-29T10:45:43;7.95;;;4.95;;
49890;SDS011;35780;55.568;37.492;2022-12-29T10:48:18;10.05;;;4.45;;
49890;SDS011;35780;55.568;37.492;2022-12-29T10:50:47;8.48;;;5.00;;
49890;SDS011;35780;55.568;37.492;2022-12-29T10:53:20;11.57;;;5.40;;
49890;SDS011;35780;55.568;37.492;2022-12-29T10:55:48;8.93;;;5.38;;
49890;SDS011;35780;55.568;37.492;2022-12-29T10:58:15;11.50;;;6.68;;
49890;SDS011;35780;55.568;37.492;2022-12-29T11:00:40;17.63;;;6.18;;
49890;SDS011;35780;55.568;37.492;2022-12-29T11:06:00;8.88;;;5.30;;
49890;SDS011;35780;55.568;37.492;2022-12-29T11:08:33;14.05;;;7.93;;
49890;SDS011;35780;55.568;37.492;2022-12-29T11:11:03;13.27;;;7.18;;
49890;SDS011;35780;55.568;37.492;2022-12-29T11:13:47;15.00;;;7.10;;
49890;SDS011;35780;55.568;37.492;2022-12-29T11:16:13;11.88;;;6.75;;
49890;SDS011;35780;55.568;37.492;2022-12-29T11:18:39;12.73;;;7.63;;
49890;SDS011;35780;55.568;37.492;2022-12-29T11:21:23;14.68;;;8.20;;
49890;SDS011;35780;55.568;37.492;2022-12-29T11:24:02;13.07;;;7.50;;
49890;SDS011;35780;55.568;37.492;2022-12-29T11:26:29;14.20;;;8.07;;
49890;SDS011;35780;55.568;37.492;2022-12-29T11:31:40;16.77;;;8.98;;
49890;SDS011;35780;55.568;37.492;2022-12-29T11:34:07;15.23;;;8.10;;
49890;SDS011;35780;55.568;37.492;2022-12-29T11:36:33;16.10;;;8.18;;
49890;SDS011;35780;55.568;37.492;2022-12-29T11:38:59;14.05;;;7.68;;
49890;SDS011;35780;55.568;37.492;2022-12-29T11:41:27;19.05;;;7.88;;
49890;SDS011;35780;55.568;37.492;2022-12-29T11:44:02;19.33;;;9.30;;
49890;SDS011;35780;55.568;37.492;2022-12-29T11:46:33;15.95;;;9.25;;
49890;SDS011;35780;55.568;37.492;2022-12-29T11:49:01;16.27;;;7.80;;
49890;SDS011;35780;55.568;37.492;2022-12-29T11:51:28;13.27;;;7.97;;
49890;SDS011;35780;55.568;37.492;2022-12-29T11:53:56;16.35;;;8.73;;
49890;SDS011;35780;55.568;37.492;2022-12-29T11:56:41;14.93;;;9.32;;
49890;SDS011;35780;55.568;37.492;2022-12-29T12:02:20;16.27;;;8.38;;
49890;SDS011;35780;55.568;37.492;2022-12-29T12:04:51;15.52;;;8.65;;
49890;SDS011;35780;55.568;37.492;2022-12-29T12:07:23;17.10;;;8.80;;
49890;SDS011;35780;55.568;37.492;2022-12-29T12:10:37;23.75;;;10.57;;
49890;SDS011;35780;55.568;37.492;2022-12-29T12:12:51;23.10;;;10.65;;
49890;SDS011;35780;55.568;37.492;2022-12-29T12:15:27;30.83;;;12.30;;
49890;SDS011;35780;55.568;37.492;2022-12-29T12:18:00;23.15;;;11.93;;
49890;SDS011;35780;55.568;37.492;2022-12-29T12:20:44;30.98;;;13.13;;
49890;SDS011;35780;55.568;37.492;2022-12-29T12:28:59;38.72;;;15.02;;
49890;SDS011;35780;55.568;37.492;2022-12-29T12:31:50;31.10;;;14.45;;
49890;SDS011;35780;55.568;37.492;2022-12-29T12:34:39;36.78;;;14.93;;
49890;SDS011;35780;55.568;37.492;2022-12-29T12:42:17;42.10;;;14.55;;
49890;SDS011;35780;55.568;37.492;2022-12-29T12:45:00;30.85;;;14.13;;
49890;SDS011;35780;55.568;37.492;2022-12-29T12:50:46;37.92;;;16.83;;
49890;SDS011;35780;55.568;37.492;2022-12-29T12:53:26;38.17;;;16.17;;
49890;SDS011;35780;55.568;37.492;2022-12-29T13:01:38;46.42;;;16.83;;
49890;SDS011;35780;55.568;37.492;2022-12-29T13:07:32;44.70;;;16.98;;
49890;SDS011;35780;55.568;37.492;2022-12-29T13:13:31;40.92;;;17.63;;
49890;SDS011;35780;55.568;37.492;2022-12-29T13:21:33;48.67;;;18.23;;
49890;SDS011;35780;55.568;37.492;2022-12-29T13:24:16;50.60;;;19.67;;
49890;SDS011;35780;55.568;37.492;2022-12-29T13:29:15;40.63;;;19.33;;
49890;SDS011;35780;55.568;37.492;2022-12-29T13:34:24;49.30;;;20.65;;
49890;SDS011;35780;55.568;37.492;2022-12-29T13:37:15;55.58;;;21.67;;
49890;SDS011;35780;55.568;37.492;2022-12-29T13:39:56;44.67;;;19.73;;
49890;SDS011;35780;55.568;37.492;2022-12-29T13:42:24;47.80;;;20.80;;
49890;SDS011;35780;55.568;37.492;2022-12-29T13:49:54;49.42;;;18.90;;
49890;SDS011;35780;55.568;37.492;2022-12-29T13:52:32;43.50;;;18.60;;
49890;SDS011;35780;55.568;37.492;2022-12-29T13:55:45;46.53;;;18.85;;
49890;SDS011;35780;55.568;37.492;2022-12-29T13:58:19;48.47;;;20.50;;
49890;SDS011;35780;55.568;37.492;2022-12-29T14:03:53;35.25;;;17.02;;
49890;SDS011;35780;55.568;37.492;2022-12-29T14:09:06;32.05;;;14.98;;
49890;SDS011;35780;55.568;37.492;2022-12-29T14:11:51;42.67;;;14.93;;
49890;SDS011;35780;55.568;37.492;2022-12-29T14:14:21;45.53;;;16.77;;
49890;SDS011;35780;55.568;37.492;2022-12-29T14:16:47;44.28;;;18.85;;
49890;SDS011;35780;55.568;37.492;2022-12-29T14:21:54;35.80;;;15.35;;
49890;SDS011;35780;55.568;37.492;2022-12-29T14:34:49;41.90;;;17.00;;
49890;SDS011;35780;55.568;37.492;2022-12-29T14:37:26;41.88;;;15.15;;
49890;SDS011;35780;55.568;37.492;2022-12-29T14:42:44;37.13;;;14.45;;
49890;SDS011;35780;55.568;37.492;2022-12-29T14:47:46;40.05;;;18.63;;
49890;SDS011;35780;55.568;37.492;2022-12-29T14:50:14;45.53;;;18.02;;
49890;SDS011;35780;55.568;37.492;2022-12-29T14:55:37;46.63;;;21.15;;
49890;SDS011;35780;55.568;37.492;2022-12-29T14:58:22;51.05;;;20.98;;
49890;SDS011;35780;55.568;37.492;2022-12-29T15:00:55;46.05;;;20.73;;
49890;SDS011;35780;55.568;37.492;2022-12-29T15:03:28;51.65;;;18.65;;
49890;SDS011;35780;55.568;37.492;2022-12-29T15:05:58;42.72;;;20.17;;
49890;SDS011;35780;55.568;37.492;2022-12-29T15:09:03;54.60;;;19.33;;
49890;SDS011;35780;55.568;37.492;2022-12-29T15:11:42;43.03;;;17.52;;
49890;SDS011;35780;55.568;37.492;2022-12-29T15:17:08;50.38;;;18.52;;
49890;SDS011;35780;55.568;37.492;2022-12-29T15:19:49;49.65;;;20.15;;
49890;SDS011;35780;55.568;37.492;2022-12-29T15:22:14;43.85;;;21.02;;
49890;SDS011;35780;55.568;37.492;2022-12-29T15:24:43;45.20;;;21.60;;
49890;SDS011;35780;55.568;37.492;2022-12-29T15:27:15;44.10;;;21.33;;
49890;SDS011;35780;55.568;37.492;2022-12-29T15:29:43;43.28;;;19.80;;
49890;SDS011;35780;55.568;37.492;2022-12-29T15:32:15;44.03;;;20.33;;
49890;SDS011;35780;55.568;37.492;2022-12-29T15:34:42;44.10;;;20.25;;
49890;SDS011;35780;55.568;37.492;2022-12-29T15:37:25;36.85;;;17.67;;
49890;SDS011;35780;55.568;37.492;2022-12-29T15:39:52;42.35;;;17.65;;
49890;SDS011;35780;55.568;37.492;2022-12-29T15:44:50;57.85;;;20.67;;
49890;SDS011;35780;55.568;37.492;2022-12-29T15:47:18;48.33;;;18.20;;
49890;SDS011;35780;55.568;37.492;2022-12-29T15:49:47;42.05;;;19.08;;
49890;SDS011;35780;55.568;37.492;2022-12-29T15:52:18;48.28;;;18.27;;
49890;SDS011;35780;55.568;37.492;2022-12-29T15:54:44;62.95;;;21.30;;
49890;SDS011;35780;55.568;37.492;2022-12-29T15:57:16;55.92;;;19.00;;
49890;SDS011;35780;55.568;37.492;2022-12-29T16:02:19;48.50;;;19.42;;
49890;SDS011;35780;55.568;37.492;2022-12-29T16:04:46;56.60;;;20.42;;
49890;SDS011;35780;55.568;37.492;2022-12-29T16:07:29;54.00;;;21.75;;
49890;SDS011;35780;55.568;37.492;2022-12-29T16:10:00;59.13;;;23.13;;
49890;SDS011;35780;55.568;37.492;2022-12-29T16:12:29;65.68;;;22.25;;
49890;SDS011;35780;55.568;37.492;2022-12-29T16:14:58;68.65;;;22.77;;
49890;SDS011;35780;55.568;37.492;2022-12-29T16:17:26;45.67;;;20.70;;
49890;SDS011;35780;55.568;37.492;2022-12-29T16:25:19;72.00;;;23.00;;
49890;SDS011;35780;55.568;37.492;2022-12-29T16:27:48;63.03;;;23.05;;
49890;SDS011;35780;55.568;37.492;2022-12-29T16:30:22;59.55;;;23.45;;
49890;SDS011;35780;55.568;37.492;2022-12-29T16:32:53;54.30;;;21.75;;
49890;SDS011;35780;55.568;37.492;2022-12-29T16:35:21;54.25;;;20.50;;
49890;SDS011;35780;55.568;37.492;2022-12-29T16:37:48;59.85;;;21.13;;
49890;SDS011;35780;55.568;37.492;2022-12-29T16:40:32;52.58;;;23.98;;
49890;SDS011;35780;55.568;37.492;2022-12-29T16:42:59;57.75;;;23.33;;
49890;SDS011;35780;55.568;37.492;2022-12-29T16:50:36;62.53;;;21.50;;
49890;SDS011;35780;55.568;37.492;2022-12-29T16:53:02;62.13;;;22.58;;
49890;SDS011;35780;55.568;37.492;2022-12-29T16:55:29;49.08;;;21.58;;
49890;SDS011;35780;55.568;37.492;2022-12-29T16:57:54;69.30;;;24.40;;
49890;SDS011;35780;55.568;37.492;2022-12-29T17:00:25;68.47;;;23.55;;
49890;SDS011;35780;55.568;37.492;2022-12-29T17:02:53;49.28;;;20.90;;
49890;SDS011;35780;55.568;37.492;2022-12-29T17:05:21;65.38;;;25.00;;
49890;SDS011;35780;55.568;37.492;2022-12-29T17:07:47;58.30;;;24.25;;